NZCH/CHC METAR and TAF weather

Enter ICAO airport designator
Station Type Date Time Source
NZCH METAR 2022/12/04 04:00 UTC NOAA

NZCH 040400Z AUTO 08012KT 9999 NCD 23/12 Q1006 NOSIG


Station Type Date Time Source
NZCH Decoded METAR 2022/12/04 04:00 UTC NOAA

Christchurch, New Zealand (NZCH) 43-29S 172-33E 30M
Dec 03, 2022 - 11:00 PM EST / 2022.12.04 0400 UTC
Wind: from the E (080 degrees) at 14 MPH (12 KT):0
Visibility: greater than 7 mile(s):0
Temperature: 73 F (23 C)
Dew Point: 53 F (12 C)
Relative Humidity: 49%
Pressure (altimeter): 29.71 in. Hg (1006 hPa)
ob: NZCH 040400Z AUTO 08012KT 9999 NCD 23/12 Q1006 NOSIG
cycle: 4

Station Type Date Time Source
NZCH TAF 2022/12/03 18:21 UTC NOAA

TAF NZCH 031717Z 0318/0500 VRB02KT CAVOK
BECMG 0323/0401 07010KT
FM040900 VRB02KT 9999 BKN020
TEMPO 0417/0420 BKN015
BECMG 0419/0421 06010KT

Example: see airport list